Time;durP1;ratioP1;P1;durP2;ratioP2;P2;SDS_P1;SDS_P2;PMS_P1;PMS_P2;Temp;Humidity;BMP_temperature;BMP_pressure;BME280_temperature;BME280_humidity;BME280_pressure;Samples;Min_cycle;Max_cycle;Signal;HPM_P1;HPM_P2
2022/07/12 00:00:06;;;;;;;1.60;1.50;;;22.90;53.70;;;;;;4993592;28;20889;-48
2022/07/12 00:02:34;;;;;;;2.07;1.83;;;22.90;53.70;;;;;;4991603;28;20453;-46
2022/07/12 00:05:02;;;;;;;1.73;1.60;;;22.90;53.60;;;;;;4983705;28;20779;-50
2022/07/12 00:07:31;;;;;;;1.63;1.53;;;22.90;53.60;;;;;;4992343;28;20515;-48
2022/07/12 00:09:59;;;;;;;1.33;1.23;;;22.90;53.60;;;;;;4992856;28;20468;-48
2022/07/12 00:12:27;;;;;;;1.87;1.67;;;22.90;53.60;;;;;;4992697;28;20437;-48
2022/07/12 00:14:56;;;;;;;2.40;1.80;;;22.90;53.60;;;;;;4992561;28;20847;-50
2022/07/12 00:17:25;;;;;;;1.47;1.37;;;22.80;53.60;;;;;;4984428;28;20470;-46
2022/07/12 00:19:53;;;;;;;1.90;1.70;;;22.80;53.50;;;;;;4987128;28;20546;-49
2022/07/12 00:22:22;;;;;;;1.60;1.50;;;22.80;53.60;;;;;;4987402;28;20949;-48
2022/07/12 00:24:50;;;;;;;1.60;1.50;;;22.80;53.50;;;;;;4978253;28;20510;-48
2022/07/12 00:27:20;;;;;;;1.73;1.60;;;22.80;53.50;;;;;;4989038;28;20881;-46
2022/07/12 00:29:49;;;;;;;2.23;2.03;;;22.80;53.50;;;;;;5001793;28;20512;-47
2022/07/12 00:32:17;;;;;;;1.47;1.37;;;22.90;53.60;;;;;;4976176;28;20445;-49
2022/07/12 00:34:47;;;;;;;2.07;1.70;;;22.80;53.50;;;;;;4991926;28;20984;-47
2022/07/12 00:37:15;;;;;;;2.27;2.07;;;22.80;53.50;;;;;;4984337;28;20512;-50
2022/07/12 00:39:45;;;;;;;2.20;1.77;;;22.80;53.50;;;;;;5008521;28;20446;-48
2022/07/12 00:42:13;;;;;;;1.83;1.50;;;22.80;53.50;;;;;;4989774;28;20497;-44
2022/07/12 00:44:41;;;;;;;1.93;1.73;;;22.80;53.50;;;;;;4988325;28;20468;-48
2022/07/12 00:47:22;;;;;;;2.70;1.70;;;22.80;53.50;;;;;;4992026;28;20509;-48
2022/07/12 00:49:52;;;;;;;1.43;1.33;;;22.80;53.50;;;;;;4991110;28;20536;-48
2022/07/12 00:52:20;;;;;;;1.60;1.50;;;22.80;53.30;;;;;;4988136;28;20497;-48
2022/07/12 00:54:49;;;;;;;1.53;1.43;;;22.80;53.30;;;;;;4987996;28;20450;-47
2022/07/12 00:57:18;;;;;;;1.97;1.87;;;22.80;53.30;;;;;;4990731;28;20977;-49
2022/07/12 00:59:47;;;;;;;1.93;1.83;;;22.80;53.30;;;;;;5047400;22;20487;-73
2022/07/12 01:02:15;;;;;;;2.67;1.90;;;22.80;53.30;;;;;;5022149;28;20484;-72
2022/07/12 01:04:45;;;;;;;2.13;1.87;;;22.80;53.30;;;;;;5016631;28;20549;-72
2022/07/12 01:07:16;;;;;;;1.57;1.47;;;22.80;53.20;;;;;;5005848;28;20611;-73
2022/07/12 01:09:45;;;;;;;1.73;1.50;;;22.80;53.30;;;;;;4995087;28;20465;-73
2022/07/12 01:12:14;;;;;;;1.67;1.57;;;22.80;53.30;;;;;;5008351;28;20454;-73
2022/07/12 01:14:42;;;;;;;2.17;1.80;;;22.80;53.20;;;;;;4991922;28;20853;-73
2022/07/12 01:17:10;;;;;;;1.70;1.60;;;22.80;53.30;;;;;;4997282;28;20862;-72
2022/07/12 01:19:40;;;;;;;1.90;1.70;;;22.80;53.20;;;;;;4985363;28;21065;-72
2022/07/12 01:22:11;;;;;;;1.87;1.70;;;22.80;53.20;;;;;;4992021;28;20470;-71
2022/07/12 01:24:40;;;;;;;1.70;1.60;;;22.80;53.20;;;;;;4994737;28;20473;-73
2022/07/12 01:27:09;;;;;;;1.77;1.67;;;22.80;53.20;;;;;;4991336;28;20438;-73
2022/07/12 01:29:37;;;;;;;1.60;1.50;;;22.80;53.20;;;;;;4980589;28;20986;-72
2022/07/12 01:34:50;;;;;;;2.10;1.87;;;22.70;53.10;;;;;;4989317;28;20477;-71
2022/07/12 01:37:20;;;;;;;1.90;1.80;;;22.80;53.20;;;;;;4985109;28;20935;-73
2022/07/12 01:39:53;;;;;;;2.00;1.90;;;22.70;53.00;;;;;;4995214;28;20484;-73
2022/07/12 01:42:21;;;;;;;2.20;1.70;;;22.70;53.10;;;;;;4985942;28;20480;-73
2022/07/12 01:44:50;;;;;;;2.60;2.20;;;22.70;53.10;;;;;;4989322;28;20493;-73
2022/07/12 01:47:18;;;;;;;1.73;1.63;;;22.70;53.10;;;;;;4982594;28;21003;-73
2022/07/12 01:49:46;;;;;;;1.77;1.53;;;22.70;53.10;;;;;;4988808;28;20529;-73
2022/07/12 01:52:15;;;;;;;2.43;1.80;;;22.70;53.00;;;;;;4987941;28;20434;-73
2022/07/12 01:54:43;;;;;;;1.73;1.40;;;22.70;53.00;;;;;;4992089;28;20569;-72
2022/07/12 01:57:13;;;;;;;2.03;1.83;;;22.70;53.00;;;;;;4991454;28;20544;-73
2022/07/12 01:59:42;;;;;;;1.50;1.40;;;22.70;53.00;;;;;;4995963;28;20457;-72
2022/07/12 02:02:10;;;;;;;1.80;1.70;;;22.70;53.00;;;;;;4997998;28;20565;-73
2022/07/12 02:04:39;;;;;;;1.83;1.73;;;22.70;52.90;;;;;;4997994;28;20509;-73
2022/07/12 02:07:07;;;;;;;2.73;1.77;;;22.70;53.00;;;;;;4988988;28;20494;-73
2022/07/12 02:09:35;;;;;;;1.90;1.80;;;22.70;53.00;;;;;;4987441;28;20473;-73
2022/07/12 02:12:04;;;;;;;2.70;1.70;;;22.70;53.00;;;;;;5000622;28;20819;-73
2022/07/12 02:14:33;;;;;;;2.27;1.70;;;22.70;53.00;;;;;;4991589;28;20561;-73
2022/07/12 02:17:01;;;;;;;2.43;1.83;;;22.70;52.90;;;;;;4989016;28;20864;-73
2022/07/12 02:19:29;;;;;;;1.67;1.57;;;22.70;53.00;;;;;;4993043;28;20486;-72
2022/07/12 02:21:57;;;;;;;1.60;1.50;;;22.70;53.00;;;;;;4980168;28;20458;-73
2022/07/12 02:24:25;;;;;;;2.20;1.70;;;22.70;52.90;;;;;;4986509;28;20481;-73
2022/07/12 02:26:53;;;;;;;1.87;1.70;;;22.70;52.90;;;;;;4997879;28;20445;-74
2022/07/12 02:29:21;;;;;;;1.97;1.70;;;22.70;52.90;;;;;;4986389;28;20466;-73
2022/07/12 02:31:51;;;;;;;2.20;1.90;;;22.60;52.90;;;;;;4989124;28;20489;-73
2022/07/12 02:34:19;;;;;;;2.20;2.00;;;22.60;52.90;;;;;;4988531;28;20567;-73
2022/07/12 02:36:47;;;;;;;1.67;1.57;;;22.70;52.90;;;;;;4980350;28;20501;-73
2022/07/12 02:39:15;;;;;;;2.20;2.00;;;22.70;52.90;;;;;;4985827;28;20520;-73
2022/07/12 02:41:43;;;;;;;2.40;2.20;;;22.70;53.00;;;;;;4987891;28;20805;-72
2022/07/12 02:44:11;;;;;;;2.07;1.33;;;22.60;52.80;;;;;;4985893;28;20478;-73
2022/07/12 02:46:39;;;;;;;2.30;2.10;;;22.60;52.80;;;;;;4987605;28;20450;-73
2022/07/12 02:49:09;;;;;;;1.70;1.60;;;22.60;52.90;;;;;;4989191;28;20488;-73
2022/07/12 02:51:37;;;;;;;2.10;1.80;;;22.60;52.90;;;;;;4987470;28;20434;-73
2022/07/12 02:54:05;;;;;;;2.07;1.53;;;22.60;52.80;;;;;;4989346;28;20918;-73
2022/07/12 02:56:33;;;;;;;1.53;1.43;;;22.60;52.80;;;;;;4996126;28;20433;-73
2022/07/12 02:59:01;;;;;;;1.90;1.80;;;22.60;54.00;;;;;;5006691;28;20536;-73
2022/07/12 03:01:29;;;;;;;1.63;1.53;;;22.60;52.80;;;;;;4992467;28;20457;-72
2022/07/12 03:03:57;;;;;;;1.77;1.33;;;22.60;52.80;;;;;;4989939;28;20481;-74
2022/07/12 03:06:27;;;;;;;1.90;1.70;;;22.60;52.80;;;;;;4991611;28;20422;-72
2022/07/12 03:08:55;;;;;;;2.77;2.30;;;22.60;52.80;;;;;;5001219;28;20473;-72
2022/07/12 03:11:23;;;;;;;1.63;1.53;;;22.60;52.70;;;;;;5000281;28;20494;-73
2022/07/12 03:13:51;;;;;;;1.77;1.67;;;22.60;52.70;;;;;;4990595;28;20990;-74
2022/07/12 03:16:19;;;;;;;1.73;1.63;;;22.60;52.70;;;;;;4985385;28;20433;-71
2022/07/12 03:18:47;;;;;;;2.00;1.83;;;22.60;52.70;;;;;;4988249;28;20549;-73
2022/07/12 03:21:16;;;;;;;1.97;1.80;;;22.60;52.70;;;;;;5006873;28;20438;-72
2022/07/12 03:23:45;;;;;;;2.20;2.10;;;22.50;52.60;;;;;;5000068;28;20477;-73
2022/07/12 03:26:14;;;;;;;3.23;1.57;;;22.50;52.60;;;;;;4992929;28;20656;-73
2022/07/12 03:28:42;;;;;;;2.80;1.57;;;22.50;52.50;;;;;;4990486;28;21003;-73
2022/07/12 03:31:10;;;;;;;2.20;1.70;;;22.50;52.50;;;;;;4988917;28;20828;-73
2022/07/12 03:33:38;;;;;;;1.80;1.70;;;22.60;52.60;;;;;;4993543;28;20484;-73
2022/07/12 03:36:08;;;;;;;1.97;1.77;;;22.50;52.40;;;;;;4997798;28;20837;-73
2022/07/12 03:38:36;;;;;;;2.40;1.90;;;22.50;52.40;;;;;;5007059;28;20484;-73
2022/07/12 03:41:06;;;;;;;2.23;1.67;;;22.50;52.40;;;;;;4995693;28;20454;-73
2022/07/12 03:43:34;;;;;;;1.83;1.60;;;22.50;52.40;;;;;;4992240;28;20512;-73
2022/07/12 03:46:02;;;;;;;2.03;1.93;;;22.50;52.40;;;;;;4993181;28;20465;-73
2022/07/12 03:48:30;;;;;;;1.63;1.33;;;22.50;52.50;;;;;;4993245;28;20510;-73
2022/07/12 03:50:58;;;;;;;2.50;2.20;;;22.50;52.40;;;;;;5002263;28;20461;-73
2022/07/12 03:53:26;;;;;;;3.83;1.80;;;22.50;52.40;;;;;;4983265;28;20548;-73
2022/07/12 03:55:54;;;;;;;2.60;1.87;;;22.50;52.40;;;;;;4994320;28;21013;-73
2022/07/12 03:58:24;;;;;;;1.60;1.50;;;22.50;52.50;;;;;;4992583;28;20505;-73
2022/07/12 04:00:52;;;;;;;2.43;2.23;;;22.50;52.40;;;;;;4994514;28;20509;-73
2022/07/12 04:03:20;;;;;;;2.27;2.07;;;22.40;52.30;;;;;;4992470;28;20472;-73
2022/07/12 04:05:48;;;;;;;2.33;1.60;;;22.50;52.40;;;;;;4987440;28;20500;-73
2022/07/12 04:08:16;;;;;;;2.20;2.00;;;22.50;52.40;;;;;;4990665;28;20470;-73
2022/07/12 04:10:44;;;;;;;2.30;1.87;;;22.50;52.40;;;;;;4990913;28;20498;-73
2022/07/12 04:13:12;;;;;;;1.47;1.37;;;22.40;52.30;;;;;;4985653;28;20485;-73
2022/07/12 04:15:43;;;;;;;2.17;1.97;;;22.40;52.40;;;;;;5004885;28;20951;-73
2022/07/12 04:18:11;;;;;;;1.90;1.80;;;22.50;52.50;;;;;;4987107;28;20476;-73
2022/07/12 04:20:40;;;;;;;2.20;2.00;;;22.40;52.40;;;;;;4996964;28;20507;-73
2022/07/12 04:23:09;;;;;;;1.70;1.60;;;22.40;52.40;;;;;;4993825;28;20508;-73
2022/07/12 04:25:37;;;;;;;2.17;1.80;;;22.40;52.40;;;;;;4993227;28;20429;-73
2022/07/12 04:28:05;;;;;;;1.73;1.63;;;22.40;52.40;;;;;;5002177;28;20474;-73
2022/07/12 04:30:33;;;;;;;2.50;1.70;;;22.40;52.40;;;;;;4996464;28;20473;-73
2022/07/12 04:33:03;;;;;;;2.60;2.27;;;22.40;52.40;;;;;;4991627;28;20516;-73
2022/07/12 04:35:31;;;;;;;2.20;2.00;;;22.40;52.40;;;;;;4993167;28;20496;-73
2022/07/12 04:37:59;;;;;;;2.03;1.83;;;22.40;52.40;;;;;;4982836;28;20538;-73
2022/07/12 04:40:27;;;;;;;2.17;1.80;;;22.40;52.40;;;;;;5008067;28;20461;-73
2022/07/12 04:42:55;;;;;;;2.20;2.00;;;22.40;52.40;;;;;;4992663;28;20497;-73
2022/07/12 04:45:23;;;;;;;1.67;1.57;;;22.30;52.40;;;;;;4991321;28;20454;-73
2022/07/12 04:47:52;;;;;;;2.03;1.60;;;22.40;52.40;;;;;;4990258;28;20462;-73
2022/07/12 04:50:21;;;;;;;1.77;1.67;;;22.30;52.40;;;;;;4994110;28;20471;-73
2022/07/12 04:52:49;;;;;;;2.20;2.00;;;22.40;52.50;;;;;;5000257;28;20939;-73
2022/07/12 04:55:18;;;;;;;2.00;1.90;;;22.30;52.40;;;;;;4991600;28;20438;-73
2022/07/12 04:57:46;;;;;;;1.90;1.80;;;22.30;52.50;;;;;;5005560;28;20867;-73
2022/07/12 05:00:15;;;;;;;2.03;1.83;;;22.30;52.40;;;;;;5003244;28;20452;-73
2022/07/12 05:02:43;;;;;;;2.57;1.60;;;22.30;52.40;;;;;;4984898;28;20457;-73
2022/07/12 05:05:11;;;;;;;1.60;1.50;;;22.30;52.40;;;;;;4990721;28;20516;-73
2022/07/12 05:07:40;;;;;;;2.57;2.20;;;22.30;52.40;;;;;;5002233;28;20964;-73
2022/07/12 05:10:14;;;;;;;2.17;1.97;;;22.30;52.40;;;;;;5008581;28;21036;-73
2022/07/12 05:12:42;;;;;;;1.70;1.60;;;22.30;52.50;;;;;;4991588;28;20458;-73
2022/07/12 05:15:10;;;;;;;2.20;2.00;;;22.30;52.50;;;;;;4994018;28;20437;-73
2022/07/12 05:17:38;;;;;;;2.33;2.13;;;22.30;52.60;;;;;;4989578;28;20537;-72
2022/07/12 05:20:07;;;;;;;1.70;1.60;;;22.30;52.50;;;;;;5004960;28;20525;-73
2022/07/12 05:22:35;;;;;;;2.03;1.80;;;22.30;52.60;;;;;;5004294;28;20437;-73
2022/07/12 05:25:05;;;;;;;2.10;1.80;;;22.30;52.50;;;;;;4993777;28;20443;-73
2022/07/12 05:27:34;;;;;;;2.67;2.47;;;22.30;52.60;;;;;;4999735;28;20433;-73
2022/07/12 05:30:02;;;;;;;2.50;2.30;;;22.30;52.70;;;;;;4992914;28;20463;-73
2022/07/12 05:32:30;;;;;;;2.30;2.10;;;22.30;52.60;;;;;;4993574;28;20512;-73
2022/07/12 05:34:58;;;;;;;2.70;2.50;;;22.30;52.60;;;;;;4991794;28;20799;-72
2022/07/12 05:37:26;;;;;;;3.17;1.87;;;22.30;52.60;;;;;;4999376;28;20489;-73
2022/07/12 05:39:54;;;;;;;2.13;1.93;;;22.30;52.70;;;;;;4999345;28;20471;-73
2022/07/12 05:42:23;;;;;;;2.70;2.50;;;22.30;52.70;;;;;;4987311;28;20434;-73
2022/07/12 05:44:51;;;;;;;2.33;2.10;;;22.30;52.70;;;;;;4986814;28;20520;-73
2022/07/12 05:47:19;;;;;;;1.90;1.77;;;22.30;52.80;;;;;;4999627;28;20441;-73
2022/07/12 05:49:48;;;;;;;2.20;2.00;;;;;;;;;;4986735;28;20578;-72
2022/07/12 05:55:01;;;;;;;3.63;2.10;;;22.30;52.70;;;;;;4988275;28;20531;-73
2022/07/12 05:57:31;;;;;;;2.20;2.00;;;22.30;52.80;;;;;;5012001;28;20433;-73
2022/07/12 05:59:59;;;;;;;2.40;2.30;;;22.30;52.80;;;;;;4994248;28;20473;-73
2022/07/12 06:02:27;;;;;;;2.47;2.30;;;22.30;52.80;;;;;;4983639;28;20992;-73
2022/07/12 06:04:56;;;;;;;2.80;2.50;;;22.30;52.80;;;;;;4995227;28;20434;-73
2022/07/12 06:07:24;;;;;;;2.60;2.40;;;22.30;53.30;;;;;;4996376;28;20442;-73
2022/07/12 06:09:52;;;;;;;5.47;2.90;;;22.30;53.00;;;;;;4999701;28;20469;-73
2022/07/12 06:12:20;;;;;;;2.40;2.20;;;22.30;52.90;;;;;;4994983;28;20954;-73
2022/07/12 06:14:49;;;;;;;3.07;2.40;;;22.30;52.80;;;;;;4993775;28;20443;-73
2022/07/12 06:17:21;;;;;;;3.30;3.00;;;22.30;53.10;;;;;;4995559;28;20516;-73
2022/07/12 06:19:49;;;;;;;3.60;2.93;;;22.30;53.20;;;;;;5002040;28;20458;-73
2022/07/12 06:22:17;;;;;;;3.30;3.00;;;22.30;53.20;;;;;;4985518;28;20810;-73
2022/07/12 06:24:45;;;;;;;3.57;2.60;;;22.30;54.40;;;;;;4994550;28;20556;-72
2022/07/12 06:27:13;;;;;;;5.07;3.27;;;22.30;53.20;;;;;;4988936;28;20528;-73
2022/07/12 06:29:44;;;;;;;2.97;2.77;;;22.30;53.40;;;;;;4991926;28;20461;-73
2022/07/12 06:32:13;;;;;;;4.10;2.90;;;22.30;53.30;;;;;;5002159;28;20508;-73
2022/07/12 06:34:41;;;;;;;5.70;2.53;;;22.30;53.20;;;;;;4998776;28;20519;-73
2022/07/12 06:37:09;;;;;;;3.40;3.10;;;22.30;53.10;;;;;;4995987;28;20536;-73
2022/07/12 06:39:37;;;;;;;3.47;3.17;;;22.30;53.50;;;;;;4998958;28;20504;-73
2022/07/12 06:42:06;;;;;;;3.80;3.27;;;22.30;53.50;;;;;;4994944;28;20524;-73
2022/07/12 06:44:35;;;;;;;3.30;3.00;;;22.30;53.50;;;;;;4996276;28;20479;-73
2022/07/12 06:47:03;;;;;;;3.40;3.10;;;22.30;53.50;;;;;;4999785;28;20437;-73
2022/07/12 06:49:33;;;;;;;3.87;3.60;;;22.30;53.50;;;;;;5003664;28;20550;-73
2022/07/12 06:52:01;;;;;;;3.43;3.23;;;22.20;53.40;;;;;;4992117;28;20466;-73
2022/07/12 06:54:29;;;;;;;3.47;3.17;;;22.30;53.60;;;;;;4993416;28;21263;-73
2022/07/12 06:56:57;;;;;;;3.60;3.30;;;22.20;53.60;;;;;;4992034;28;20430;-73
2022/07/12 06:59:25;;;;;;;3.87;3.53;;;22.20;53.70;;;;;;5007468;28;20518;-73
2022/07/12 07:01:55;;;;;;;3.60;3.30;;;22.30;54.00;;;;;;5000812;28;20449;-73
2022/07/12 07:04:24;;;;;;;3.57;3.27;;;22.20;53.70;;;;;;5008707;22;20486;-66
2022/07/12 07:06:53;;;;;;;3.20;2.90;;;22.30;54.00;;;;;;5015138;28;20495;-66
2022/07/12 07:09:21;;;;;;;3.50;3.20;;;22.30;53.90;;;;;;4993923;28;20539;-66
2022/07/12 07:11:50;;;;;;;3.30;3.03;;;22.30;53.90;;;;;;4996340;28;20453;-67
2022/07/12 07:14:18;;;;;;;3.73;3.43;;;22.20;53.70;;;;;;4987959;28;20481;-67
2022/07/12 07:16:46;;;;;;;3.37;3.10;;;22.20;53.60;;;;;;4994430;28;20472;-67
2022/07/12 07:19:15;;;;;;;3.57;3.37;;;22.30;53.70;;;;;;4990856;28;20476;-67
2022/07/12 07:21:49;;;;;;;4.90;3.33;;;22.20;53.60;;;;;;4981523;28;20445;-66
2022/07/12 07:24:19;;;;;;;3.67;3.37;;;22.20;53.60;;;;;;4990906;28;20470;-68
2022/07/12 07:26:47;;;;;;;3.13;2.93;;;22.20;53.70;;;;;;4991801;28;21184;-66
2022/07/12 07:32:07;;;;;;;3.37;3.10;;;22.20;53.80;;;;;;4984663;28;20466;-67
2022/07/12 07:34:35;;;;;;;3.83;3.53;;;22.20;53.90;;;;;;4995050;28;20457;-65
2022/07/12 07:37:03;;;;;;;3.07;2.87;;;22.20;53.80;;;;;;4995464;28;20441;-67
2022/07/12 07:39:33;;;;;;;3.83;3.40;;;22.20;53.80;;;;;;4993215;28;20485;-65
2022/07/12 07:42:01;;;;;;;3.20;3.00;;;22.20;54.00;;;;;;4994741;28;20465;-67
2022/07/12 07:44:29;;;;;;;3.53;3.33;;;22.20;53.90;;;;;;4994801;28;20469;-67
2022/07/12 07:47:01;;;;;;;3.53;3.23;;;22.20;53.90;;;;;;4992613;28;20449;-67
2022/07/12 07:49:29;;;;;;;3.73;3.50;;;22.20;54.00;;;;;;4987968;28;20837;-66
2022/07/12 07:51:57;;;;;;;3.30;3.10;;;22.20;54.10;;;;;;4991734;28;20489;-65
2022/07/12 07:54:25;;;;;;;2.90;2.70;;;22.20;53.80;;;;;;4986962;28;20478;-67
2022/07/12 07:56:55;;;;;;;3.50;3.30;;;22.20;53.80;;;;;;4995106;28;20425;-67
2022/07/12 07:59:29;;;;;;;3.53;3.23;;;22.20;53.90;;;;;;4988329;28;20933;-67
2022/07/12 08:01:57;;;;;;;2.97;2.77;;;22.20;53.90;;;;;;4992819;28;20461;-67
2022/07/12 08:04:25;;;;;;;3.50;3.20;;;22.20;53.80;;;;;;4987047;28;20480;-67
2022/07/12 08:06:53;;;;;;;2.63;2.43;;;22.20;53.90;;;;;;4995293;28;20434;-67
2022/07/12 08:09:21;;;;;;;3.30;2.90;;;22.20;53.90;;;;;;4992141;28;21005;-67
2022/07/12 08:11:49;;;;;;;3.30;3.07;;;22.20;54.10;;;;;;4991601;28;20470;-67
2022/07/12 08:14:19;;;;;;;2.93;2.73;;;22.20;54.00;;;;;;4990519;28;20540;-66
2022/07/12 08:16:47;;;;;;;3.10;2.90;;;22.20;54.10;;;;;;4994773;28;20430;-66
2022/07/12 08:19:15;;;;;;;3.43;3.23;;;22.20;54.10;;;;;;4985440;28;20558;-66
2022/07/12 08:21:43;;;;;;;3.43;3.13;;;22.20;54.20;;;;;;4990080;28;20438;-65
2022/07/12 08:24:11;;;;;;;3.63;3.33;;;22.20;54.20;;;;;;4993504;28;20481;-66
2022/07/12 08:26:40;;;;;;;3.10;2.90;;;22.20;54.00;;;;;;4993974;28;20529;-66
2022/07/12 08:29:08;;;;;;;3.53;3.23;;;22.20;53.90;;;;;;4993536;28;20551;-66
2022/07/12 08:31:37;;;;;;;2.60;2.40;;;22.20;54.00;;;;;;4991729;28;20468;-65
2022/07/12 08:34:05;;;;;;;3.80;3.50;;;22.20;54.00;;;;;;4985129;28;20481;-66
2022/07/12 08:36:33;;;;;;;2.60;2.40;;;22.20;54.00;;;;;;4989787;28;20480;-64
2022/07/12 08:39:02;;;;;;;3.17;2.97;;;22.20;53.90;;;;;;4993361;28;20516;-66
2022/07/12 08:41:30;;;;;;;3.30;3.10;;;22.20;53.90;;;;;;4989050;28;20939;-66
2022/07/12 08:43:58;;;;;;;3.43;3.13;;;22.20;54.00;;;;;;4993768;28;21022;-66
2022/07/12 08:46:27;;;;;;;2.60;2.40;;;22.20;54.00;;;;;;4992396;28;20453;-66
2022/07/12 08:48:56;;;;;;;3.37;3.17;;;22.20;54.00;;;;;;4991200;28;20458;-67
2022/07/12 08:51:24;;;;;;;3.13;2.93;;;22.20;53.90;;;;;;4990822;28;20500;-67
2022/07/12 08:54:06;;;;;;;2.83;2.63;;;22.20;53.90;;;;;;4983903;28;20547;-66
2022/07/12 08:56:37;;;;;;;2.70;2.50;;;22.20;53.80;;;;;;4994232;28;20429;-67
2022/07/12 08:59:13;;;;;;;2.60;2.40;;;22.20;53.90;;;;;;4993623;28;20479;-66
2022/07/12 09:01:43;;;;;;;2.90;2.70;;;22.20;53.80;;;;;;4988126;28;20435;-67
2022/07/12 09:04:14;;;;;;;3.10;2.80;;;22.20;53.80;;;;;;4992529;28;20473;-67
2022/07/12 09:06:42;;;;;;;3.13;2.90;;;22.20;53.90;;;;;;4993924;28;20437;-67
2022/07/12 09:09:10;;;;;;;3.00;2.80;;;22.20;53.90;;;;;;4987284;28;20536;-66
2022/07/12 09:11:40;;;;;;;2.70;2.50;;;22.20;53.80;;;;;;4992618;28;20476;-66
2022/07/12 09:14:08;;;;;;;3.80;3.10;;;22.20;53.80;;;;;;4993131;28;20548;-65
2022/07/12 09:16:36;;;;;;;2.60;2.40;;;22.20;53.90;;;;;;4993070;28;20533;-67
2022/07/12 09:19:17;;;;;;;2.90;2.70;;;22.20;53.80;;;;;;4995777;28;20477;-66
2022/07/12 09:21:50;;;;;;;2.87;2.67;;;22.30;53.80;;;;;;4992965;28;20461;-67
2022/07/12 09:24:18;;;;;;;2.93;2.73;;;22.20;53.80;;;;;;4984906;28;20469;-66
2022/07/12 09:26:47;;;;;;;3.03;2.83;;;22.20;53.80;;;;;;4993426;28;20989;-67
2022/07/12 09:29:16;;;;;;;4.70;3.10;;;22.20;53.70;;;;;;4984284;28;20480;-66
2022/07/12 09:37:25;;;;;;;3.37;3.07;;;22.20;53.70;;;;;;4983908;28;20441;-67
2022/07/12 09:39:54;;;;;;;2.70;2.50;;;22.20;53.80;;;;;;4983337;28;20469;-66
2022/07/12 09:42:22;;;;;;;3.13;2.93;;;22.30;53.90;;;;;;4988940;28;20840;-67
2022/07/12 09:44:57;;;;;;;2.83;2.63;;;22.30;53.90;;;;;;4986566;28;20449;-68
2022/07/12 09:47:27;;;;;;;2.50;2.30;;;22.20;53.90;;;;;;4984968;28;20504;-66
2022/07/12 09:49:56;;;;;;;3.30;3.10;;;22.20;53.90;;;;;;4991214;28;20832;-67
2022/07/12 09:52:27;;;;;;;3.50;3.20;;;22.20;53.70;;;;;;4992049;28;20990;-67
2022/07/12 09:54:56;;;;;;;2.40;2.20;;;22.20;53.70;;;;;;4987633;28;20805;-66
2022/07/12 09:57:30;;;;;;;2.60;2.40;;;22.20;53.70;;;;;;4982020;28;20435;-67
2022/07/12 09:59:59;;;;;;;2.60;2.37;;;22.30;53.90;;;;;;4988833;28;20457;-67
2022/07/12 10:02:39;;;;;;;2.60;2.40;;;22.20;53.80;;;;;;4991425;28;20544;-67
2022/07/12 10:05:11;;;;;;;2.83;2.63;;;22.20;53.80;;;;;;4992840;28;20932;-67
2022/07/12 10:07:40;;;;;;;3.20;2.87;;;22.20;53.70;;;;;;4990744;28;20445;-67
2022/07/12 10:10:11;;;;;;;2.63;2.43;;;22.30;53.70;;;;;;4986569;28;20469;-66
2022/07/12 10:12:41;;;;;;;2.80;2.60;;;22.20;53.70;;;;;;4983387;28;20489;-67
2022/07/12 10:15:15;;;;;;;2.50;2.30;;;22.30;53.80;;;;;;4988798;28;20928;-65
2022/07/12 10:17:52;;;;;;;2.00;1.90;;;22.30;53.70;;;;;;4986618;28;20852;-67
2022/07/12 10:20:24;;;;;;;2.40;2.20;;;22.30;53.70;;;;;;4985984;28;20449;-66
2022/07/12 10:22:53;;;;;;;2.53;2.33;;;22.30;53.70;;;;;;4991562;28;20469;-68
2022/07/12 10:25:34;;;;;;;2.20;2.10;;;22.30;53.70;;;;;;4991281;28;20480;-66
2022/07/12 10:28:04;;;;;;;2.20;2.00;;;22.30;53.70;;;;;;4987056;28;20462;-66
2022/07/12 10:30:42;;;;;;;2.43;2.23;;;22.30;53.70;;;;;;4992080;28;20441;-67
2022/07/12 10:33:16;;;;;;;2.77;2.57;;;22.30;53.60;;;;;;4993881;28;20461;-67
2022/07/12 10:36:01;;;;;;;2.40;2.20;;;22.30;53.70;;;;;;4991119;28;20437;-67
2022/07/12 10:38:30;;;;;;;2.30;2.10;;;22.30;53.70;;;;;;4984192;28;20485;-67
2022/07/12 10:41:03;;;;;;;2.10;2.00;;;22.30;53.70;;;;;;4988827;28;20446;-68
2022/07/12 10:46:25;;;;;;;2.00;1.77;;;22.30;53.70;;;;;;4989562;28;20438;-67
2022/07/12 10:49:26;;;;;;;2.60;2.40;;;22.30;53.70;;;;;;4989574;28;20469;-65
2022/07/12 10:52:15;;;;;;;2.47;2.27;;;22.30;53.60;;;;;;4990993;28;20437;-67
2022/07/12 10:54:47;;;;;;;2.47;2.30;;;22.30;53.70;;;;;;4989229;28;20841;-67
2022/07/12 10:57:15;;;;;;;2.40;2.20;;;22.30;53.60;;;;;;4991005;28;20437;-67
2022/07/12 10:59:51;;;;;;;2.50;2.30;;;22.30;53.60;;;;;;4984016;28;20489;-67
2022/07/12 11:02:22;;;;;;;2.10;2.00;;;22.30;53.50;;;;;;4991691;28;20448;-66
2022/07/12 11:04:53;;;;;;;2.20;2.00;;;22.30;53.50;;;;;;4988527;28;20469;-67
2022/07/12 11:07:25;;;;;;;2.00;1.90;;;22.30;53.50;;;;;;4980883;28;20441;-66
2022/07/12 11:09:53;;;;;;;2.40;2.20;;;22.40;53.50;;;;;;4987507;28;20465;-66
2022/07/12 11:12:21;;;;;;;1.73;1.63;;;22.40;53.50;;;;;;4974872;28;20447;-67
2022/07/12 11:14:52;;;;;;;2.03;1.83;;;22.40;53.70;;;;;;4982865;28;20469;-67
2022/07/12 11:17:25;;;;;;;2.40;2.20;;;22.40;53.60;;;;;;5004452;28;20430;-65
2022/07/12 11:20:05;;;;;;;2.10;1.93;;;22.40;53.50;;;;;;4985400;28;20477;-67
2022/07/12 11:22:35;;;;;;;2.17;2.07;;;22.40;53.60;;;;;;4985951;28;20437;-67
2022/07/12 11:25:03;;;;;;;2.33;2.13;;;22.40;53.60;;;;;;4986957;28;20500;-66
2022/07/12 11:27:39;;;;;;;2.00;1.90;;;22.40;53.60;;;;;;4991088;28;20844;-66
2022/07/12 11:30:09;;;;;;;1.90;1.80;;;22.40;53.50;;;;;;4988810;28;20627;-66
2022/07/12 11:32:38;;;;;;;1.93;1.83;;;22.40;53.50;;;;;;4991395;28;20998;-67
2022/07/12 11:35:22;;;;;;;2.00;1.90;;;22.40;53.60;;;;;;4989819;28;20462;-66
2022/07/12 11:37:53;;;;;;;1.70;1.60;;;22.40;53.50;;;;;;4986886;28;20951;-67
2022/07/12 11:40:25;;;;;;;1.73;1.63;;;22.40;53.50;;;;;;4993348;28;20444;-66
2022/07/12 11:42:55;;;;;;;3.77;1.70;;;22.40;53.50;;;;;;4989093;28;20511;-67
2022/07/12 11:45:24;;;;;;;1.90;1.80;;;22.40;54.00;;;;;;4992291;28;20544;-68
2022/07/12 11:47:52;;;;;;;1.70;1.60;;;22.40;53.50;;;;;;4994280;28;20947;-68
2022/07/12 11:50:21;;;;;;;1.80;1.70;;;22.40;53.50;;;;;;4994841;28;20473;-67
2022/07/12 11:52:49;;;;;;;2.07;1.97;;;22.50;53.50;;;;;;4993423;28;20446;-66
2022/07/12 11:55:19;;;;;;;1.80;1.70;;;22.50;53.50;;;;;;4992883;28;20473;-67
2022/07/12 11:57:48;;;;;;;2.00;1.90;;;22.50;53.50;;;;;;4991433;28;20460;-66
2022/07/12 12:00:17;;;;;;;1.60;1.50;;;22.50;53.50;;;;;;4994293;28;20444;-67
2022/07/12 12:02:47;;;;;;;1.50;1.40;;;22.50;53.50;;;;;;4992626;28;20458;-67
2022/07/12 12:05:15;;;;;;;1.50;1.40;;;22.50;53.40;;;;;;4986655;28;20453;-68
2022/07/12 12:07:44;;;;;;;1.60;1.50;;;22.50;53.30;;;;;;4994065;28;20943;-68
2022/07/12 12:10:13;;;;;;;2.03;1.93;;;22.60;53.40;;;;;;4984543;28;20446;-67
2022/07/12 12:12:45;;;;;;;1.47;1.37;;;22.60;53.40;;;;;;4992633;28;20947;-67
2022/07/12 12:15:15;;;;;;;1.90;1.80;;;22.50;53.30;;;;;;4995054;28;20846;-66
2022/07/12 12:17:52;;;;;;;1.87;1.77;;;22.60;53.40;;;;;;4988818;28;20474;-66
2022/07/12 12:20:21;;;;;;;1.57;1.47;;;22.60;53.30;;;;;;4991116;28;20981;-67
2022/07/12 12:22:51;;;;;;;1.60;1.50;;;22.60;53.20;;;;;;4994046;28;20458;-67
2022/07/12 12:25:20;;;;;;;1.63;1.53;;;22.60;53.20;;;;;;4990081;28;20854;-67
2022/07/12 12:27:54;;;;;;;1.70;1.60;;;22.60;53.20;;;;;;4994062;28;20481;-65
2022/07/12 12:30:50;;;;;;;2.03;1.93;;;22.60;53.20;;;;;;4995127;28;20889;-65
2022/07/12 12:33:44;;;;;;;2.40;1.57;;;22.60;53.20;;;;;;4993848;28;20469;-67
2022/07/12 12:36:16;;;;;;;1.43;1.33;;;22.60;53.20;;;;;;4970925;28;20434;-66
2022/07/12 12:38:46;;;;;;;1.60;1.50;;;22.60;53.10;;;;;;4989945;28;20481;-68
2022/07/12 12:41:15;;;;;;;1.60;1.50;;;22.60;53.00;;;;;;4994180;28;20469;-67
2022/07/12 12:43:45;;;;;;;1.60;1.50;;;22.70;53.00;;;;;;4992913;28;20462;-65
2022/07/12 12:46:22;;;;;;;1.70;1.47;;;22.70;53.00;;;;;;4993305;28;20433;-67
2022/07/12 12:48:50;;;;;;;2.40;1.30;;;22.70;52.90;;;;;;4993252;28;21053;-66
2022/07/12 12:51:18;;;;;;;1.23;1.13;;;22.70;52.90;;;;;;4994332;28;20481;-67
2022/07/12 12:53:57;;;;;;;1.60;1.50;;;22.70;52.90;;;;;;4992949;28;20528;-66
2022/07/12 12:56:25;;;;;;;1.37;1.27;;;22.70;52.70;;;;;;4994023;28;20426;-67
2022/07/12 12:58:55;;;;;;;1.63;1.53;;;22.70;52.70;;;;;;4993809;28;20465;-66
2022/07/12 13:01:23;;;;;;;1.37;1.27;;;22.70;52.60;;;;;;4986701;28;20920;-67
2022/07/12 13:03:52;;;;;;;1.93;1.53;;;22.70;52.50;;;;;;4990895;28;20520;-67
2022/07/12 13:06:21;;;;;;;1.50;1.40;;;22.70;52.60;;;;;;4987583;28;20504;-66
2022/07/12 13:08:49;;;;;;;1.20;1.10;;;22.70;52.50;;;;;;4992347;28;20481;-67
2022/07/12 13:11:22;;;;;;;1.50;1.40;;;22.80;52.60;;;;;;5022424;22;20982;-48
2022/07/12 13:14:01;;;;;;;1.33;1.20;;;22.80;52.50;;;;;;5028802;28;20534;-49
2022/07/12 13:16:30;;;;;;;1.70;1.60;;;22.80;52.50;;;;;;5038424;28;20551;-50